createdAt,value
2022-12-03T00:01:35.194Z,3.26
2022-12-03T00:04:01.531Z,3.25
2022-12-03T00:06:32.906Z,3.27
2022-12-03T00:09:00.617Z,3.23
2022-12-03T00:11:26.814Z,3.25
2022-12-03T00:13:52.983Z,3.26
2022-12-03T00:16:19.229Z,3.28
2022-12-03T00:18:45.440Z,3.26
2022-12-03T00:21:11.591Z,3.28
2022-12-03T00:23:42.035Z,3.24
2022-12-03T00:26:08.676Z,3.30
2022-12-03T00:28:34.878Z,3.28
2022-12-03T00:31:01.166Z,3.32
2022-12-03T00:33:27.402Z,3.39
2022-12-03T00:35:53.537Z,3.46
2022-12-03T00:38:19.721Z,3.50
2022-12-03T00:40:45.888Z,3.50
2022-12-03T00:43:12.055Z,3.44
2022-12-03T00:45:38.212Z,3.50
2022-12-03T00:48:04.414Z,3.41
2022-12-03T00:50:30.638Z,3.41
2022-12-03T00:52:56.802Z,3.40
2022-12-03T00:55:23.112Z,3.36
2022-12-03T00:57:49.311Z,3.37
2022-12-03T01:00:15.448Z,3.43
2022-12-03T01:02:41.574Z,3.43
2022-12-03T01:05:07.763Z,3.41
2022-12-03T01:07:33.946Z,3.38
2022-12-03T01:10:00.172Z,3.40
2022-12-03T01:12:26.348Z,3.43
2022-12-03T01:14:52.822Z,3.44
2022-12-03T01:17:19.252Z,3.43
2022-12-03T01:19:48.403Z,3.54
2022-12-03T01:22:14.893Z,3.48
2022-12-03T01:24:41.070Z,3.52
2022-12-03T01:27:07.254Z,3.49
2022-12-03T01:29:33.424Z,3.52
2022-12-03T01:31:59.579Z,3.55
2022-12-03T01:34:25.826Z,3.49
2022-12-03T01:36:52.023Z,3.51
2022-12-03T01:39:18.214Z,3.57
2022-12-03T01:41:44.429Z,3.49
2022-12-03T01:44:10.572Z,3.54
2022-12-03T01:46:36.788Z,3.56
2022-12-03T01:49:03.045Z,3.55
2022-12-03T01:51:29.192Z,3.55
2022-12-03T01:53:55.372Z,3.55
2022-12-03T01:56:21.527Z,3.58
2022-12-03T01:58:47.664Z,3.53
2022-12-03T02:01:13.816Z,3.62
2022-12-03T02:03:40.068Z,3.64
2022-12-03T02:06:06.284Z,3.62
2022-12-03T02:08:32.450Z,3.53
2022-12-03T02:10:58.602Z,3.50
2022-12-03T02:13:24.720Z,3.46
2022-12-03T02:15:50.892Z,3.45
2022-12-03T02:18:17.141Z,3.44
2022-12-03T02:20:43.325Z,3.41
2022-12-03T02:23:09.500Z,3.41
2022-12-03T02:25:35.704Z,3.40
2022-12-03T02:28:01.901Z,3.45
2022-12-03T02:30:28.057Z,3.44
2022-12-03T02:32:54.240Z,3.43
2022-12-03T02:35:20.400Z,3.43
2022-12-03T02:37:46.525Z,3.43
2022-12-03T02:40:12.691Z,3.41
2022-12-03T02:42:38.858Z,3.44
2022-12-03T02:45:05.723Z,3.55
2022-12-03T02:47:32.042Z,3.50
2022-12-03T02:49:58.233Z,3.48
2022-12-03T02:52:24.403Z,3.50
2022-12-03T02:54:50.646Z,3.52
2022-12-03T02:57:16.904Z,3.55
2022-12-03T02:59:43.114Z,3.54
2022-12-03T03:02:09.287Z,3.55
2022-12-03T03:04:35.561Z,3.54
2022-12-03T03:07:01.733Z,3.55
2022-12-03T03:09:27.922Z,3.55
2022-12-03T03:11:54.144Z,3.67
2022-12-03T03:14:20.263Z,3.59
2022-12-03T03:16:46.454Z,3.52
2022-12-03T03:19:12.645Z,3.51
2022-12-03T03:21:38.788Z,3.52
2022-12-03T03:24:04.958Z,3.50
2022-12-03T03:26:31.082Z,3.52
2022-12-03T03:28:57.257Z,3.47
2022-12-03T03:31:23.504Z,3.43
2022-12-03T03:33:49.685Z,3.44
2022-12-03T03:36:15.831Z,3.43
2022-12-03T03:38:42.008Z,3.42
2022-12-03T03:41:08.180Z,3.44
2022-12-03T03:43:34.319Z,3.46
2022-12-03T03:46:00.565Z,3.47
2022-12-03T03:48:26.802Z,3.44
2022-12-03T03:50:52.926Z,3.41
2022-12-03T03:53:19.092Z,3.38
2022-12-03T03:55:45.252Z,3.39
2022-12-03T03:58:11.405Z,3.39
2022-12-03T04:00:37.605Z,3.37
2022-12-03T04:03:03.749Z,3.36
2022-12-03T04:05:29.879Z,3.35
2022-12-03T04:07:56.123Z,3.37
2022-12-03T04:10:22.545Z,3.36
2022-12-03T04:12:48.776Z,3.35
2022-12-03T04:15:14.923Z,3.34
2022-12-03T04:17:41.080Z,3.30
2022-12-03T04:20:07.273Z,3.26
2022-12-03T04:22:33.419Z,3.27
2022-12-03T04:24:59.625Z,3.22
2022-12-03T04:27:25.764Z,3.25
2022-12-03T04:29:51.886Z,3.26
2022-12-03T04:32:18.044Z,3.20
2022-12-03T04:34:44.233Z,3.23
2022-12-03T04:37:10.366Z,3.19
2022-12-03T04:39:36.527Z,3.26
2022-12-03T04:42:02.700Z,3.26
2022-12-03T04:44:28.875Z,3.31
2022-12-03T04:46:55.032Z,3.31
2022-12-03T04:49:21.154Z,3.32
2022-12-03T04:51:47.394Z,3.28
2022-12-03T04:54:13.581Z,3.33
2022-12-03T04:56:39.725Z,3.35
2022-12-03T04:59:07.243Z,3.36
2022-12-03T05:01:35.152Z,3.32
2022-12-03T05:04:01.334Z,3.35
2022-12-03T05:06:27.457Z,3.30
2022-12-03T05:08:53.599Z,3.34
2022-12-03T05:11:19.711Z,3.26
2022-12-03T05:13:45.883Z,3.25
2022-12-03T05:16:12.082Z,3.25
2022-12-03T05:18:38.284Z,3.26
2022-12-03T05:21:04.460Z,3.24
2022-12-03T05:23:30.671Z,3.29
2022-12-03T05:25:56.795Z,3.25
2022-12-03T05:28:22.921Z,3.22
2022-12-03T05:30:49.161Z,3.20
2022-12-03T05:33:15.364Z,3.19
2022-12-03T05:35:41.549Z,3.14
2022-12-03T05:38:07.782Z,3.11
2022-12-03T05:40:33.984Z,3.17
2022-12-03T05:43:00.163Z,3.11
2022-12-03T05:45:26.337Z,3.09
2022-12-03T05:47:52.504Z,3.11
2022-12-03T05:50:18.646Z,3.07
2022-12-03T05:52:44.821Z,3.05
2022-12-03T05:55:11.014Z,3.03
2022-12-03T05:57:37.163Z,2.93
2022-12-03T06:00:03.320Z,2.83
2022-12-03T06:02:29.572Z,2.79
2022-12-03T06:04:56.049Z,2.71
2022-12-03T06:07:22.442Z,2.58
2022-12-03T06:09:48.596Z,2.50
2022-12-03T06:12:14.776Z,2.43
2022-12-03T06:14:40.935Z,2.38
2022-12-03T06:17:07.180Z,2.25
2022-12-03T06:19:33.367Z,2.16
2022-12-03T06:21:59.519Z,2.10
2022-12-03T06:24:25.652Z,2.03
2022-12-03T06:26:51.920Z,1.97
2022-12-03T06:29:18.054Z,1.86
2022-12-03T06:31:44.210Z,1.87
2022-12-03T06:34:10.371Z,1.89
2022-12-03T06:36:36.560Z,1.89
2022-12-03T06:39:02.748Z,1.86
2022-12-03T06:41:28.935Z,1.83
2022-12-03T06:43:55.098Z,1.74
2022-12-03T06:46:21.390Z,1.64
2022-12-03T06:48:47.636Z,1.53
2022-12-03T06:51:13.830Z,1.59
2022-12-03T06:53:39.993Z,1.51
2022-12-03T06:56:06.152Z,1.62
2022-12-03T06:58:32.329Z,1.67
2022-12-03T07:00:58.525Z,1.69
2022-12-03T07:03:24.731Z,1.72
2022-12-03T07:05:50.932Z,1.75
2022-12-03T07:08:17.161Z,1.76
2022-12-03T07:10:43.417Z,1.79
2022-12-03T07:13:09.550Z,1.72
2022-12-03T07:15:35.720Z,1.68
2022-12-03T07:18:01.918Z,1.60
2022-12-03T07:20:28.218Z,1.60
2022-12-03T07:22:54.437Z,1.69
2022-12-03T07:25:23.499Z,1.68
2022-12-03T07:27:50.046Z,1.69
2022-12-03T07:30:16.174Z,1.79
2022-12-03T07:32:42.311Z,1.86
2022-12-03T07:35:08.472Z,1.92
2022-12-03T07:37:34.625Z,1.98
2022-12-03T07:40:00.799Z,2.09
2022-12-03T07:42:26.938Z,2.10
2022-12-03T07:44:53.307Z,2.14
2022-12-03T07:47:19.706Z,2.18
2022-12-03T07:49:45.818Z,2.11
2022-12-03T07:52:12.027Z,2.08
2022-12-03T07:54:38.179Z,2.06
2022-12-03T07:57:04.292Z,2.09
2022-12-03T07:59:30.423Z,2.07
2022-12-03T08:01:56.720Z,2.08
2022-12-03T08:04:22.945Z,2.07
2022-12-03T08:06:49.090Z,2.18
2022-12-03T08:09:16.294Z,2.25
2022-12-03T08:11:42.790Z,2.37
2022-12-03T08:14:08.961Z,2.39
2022-12-03T08:16:35.180Z,2.45
2022-12-03T08:19:01.410Z,2.48
2022-12-03T08:21:27.560Z,2.53
2022-12-03T08:23:53.734Z,2.57
2022-12-03T08:26:19.894Z,2.54
2022-12-03T08:28:46.118Z,2.63
2022-12-03T08:31:12.397Z,2.68
2022-12-03T08:33:38.605Z,2.68
2022-12-03T08:36:04.774Z,2.72
2022-12-03T08:38:30.949Z,2.83
2022-12-03T08:40:57.183Z,2.90
2022-12-03T08:43:23.348Z,2.93
2022-12-03T08:45:49.523Z,2.91
2022-12-03T08:48:15.710Z,2.83
2022-12-03T08:50:41.904Z,2.71
2022-12-03T08:53:08.058Z,2.72
2022-12-03T08:55:34.241Z,2.86
2022-12-03T08:58:00.437Z,3.06
2022-12-03T09:00:26.645Z,3.18
2022-12-03T09:02:52.838Z,3.25
2022-12-03T09:05:19.029Z,3.41
2022-12-03T09:07:45.232Z,3.34
2022-12-03T09:10:11.503Z,3.40
2022-12-03T09:12:37.688Z,3.29
2022-12-03T09:15:03.820Z,3.15
2022-12-03T09:17:29.961Z,3.06
2022-12-03T09:19:56.145Z,2.95
2022-12-03T09:22:22.334Z,3.02
2022-12-03T09:24:48.525Z,3.02
2022-12-03T09:27:14.648Z,3.06
2022-12-03T09:29:40.817Z,3.15
2022-12-03T09:32:07.073Z,3.24
2022-12-03T09:34:33.249Z,3.32
2022-12-03T09:36:59.409Z,3.42
2022-12-03T09:39:25.591Z,3.58
2022-12-03T09:41:51.778Z,3.60
2022-12-03T09:44:18.420Z,3.55
2022-12-03T09:46:44.699Z,3.66
2022-12-03T09:49:15.587Z,3.69
2022-12-03T09:51:42.342Z,3.75
2022-12-03T09:54:08.605Z,3.79
2022-12-03T09:56:34.763Z,3.76
2022-12-03T09:59:00.915Z,3.73
2022-12-03T10:01:30.351Z,3.77
2022-12-03T10:03:56.963Z,3.82
2022-12-03T10:06:23.082Z,3.78
2022-12-03T10:08:49.272Z,3.99
2022-12-03T10:11:15.421Z,4.11
2022-12-03T10:13:41.592Z,4.26
2022-12-03T10:16:07.725Z,4.35
2022-12-03T10:18:38.313Z,4.57
2022-12-03T10:21:07.551Z,4.71
2022-12-03T10:23:33.761Z,4.89
2022-12-03T10:25:59.889Z,4.87
2022-12-03T10:28:26.022Z,5.00
2022-12-03T10:30:52.219Z,5.04
2022-12-03T10:33:19.256Z,5.09
2022-12-03T10:35:45.585Z,5.14
2022-12-03T10:38:11.763Z,4.94
2022-12-03T10:40:37.933Z,5.00
2022-12-03T10:43:04.100Z,5.05
2022-12-03T10:45:30.239Z,5.19
2022-12-03T10:47:56.471Z,5.15
2022-12-03T10:50:22.672Z,5.03
2022-12-03T10:52:48.795Z,5.06
2022-12-03T10:55:14.957Z,5.09
2022-12-03T10:57:45.368Z,5.15
2022-12-03T11:00:12.218Z,5.28
2022-12-03T11:02:38.410Z,5.44
2022-12-03T11:05:04.537Z,5.44
2022-12-03T11:07:30.712Z,5.45
2022-12-03T11:09:56.940Z,5.59
2022-12-03T11:12:23.108Z,5.57
2022-12-03T11:14:49.288Z,5.59
2022-12-03T11:17:15.440Z,5.66
2022-12-03T11:19:41.627Z,5.68
2022-12-03T11:22:07.838Z,5.55
2022-12-03T11:24:33.988Z,5.38
2022-12-03T11:27:00.188Z,5.35
2022-12-03T11:29:26.356Z,5.29
2022-12-03T11:31:52.542Z,5.29
2022-12-03T11:34:18.723Z,5.18
2022-12-03T11:37:01.090Z,5.12
2022-12-03T11:39:28.226Z,5.10
2022-12-03T11:41:54.424Z,5.26
2022-12-03T11:44:20.599Z,5.33
2022-12-03T11:46:46.849Z,5.41
2022-12-03T11:49:13.359Z,5.42
2022-12-03T11:51:39.692Z,5.33
2022-12-03T11:54:05.864Z,5.46
2022-12-03T11:56:32.069Z,5.54
2022-12-03T11:58:58.269Z,5.61
2022-12-03T12:01:24.425Z,5.71
2022-12-03T12:03:50.669Z,5.56
2022-12-03T12:06:17.051Z,5.52
2022-12-03T12:08:43.172Z,5.59
2022-12-03T12:11:09.296Z,5.52
2022-12-03T12:13:35.452Z,5.53
2022-12-03T12:16:01.672Z,5.52
2022-12-03T12:18:27.807Z,5.52
2022-12-03T12:20:53.981Z,5.32
2022-12-03T12:23:20.163Z,5.41
2022-12-03T12:25:50.845Z,5.44
2022-12-03T12:28:20.084Z,5.50
2022-12-03T12:30:46.243Z,5.50
2022-12-03T12:33:12.450Z,5.51
2022-12-03T12:35:38.629Z,5.51
2022-12-03T12:38:04.839Z,5.39
2022-12-03T12:40:31.003Z,5.40
2022-12-03T12:42:57.135Z,5.32
2022-12-03T12:45:23.330Z,5.47
2022-12-03T12:47:49.571Z,5.54
2022-12-03T12:50:15.807Z,5.50
2022-12-03T12:52:41.995Z,5.56
2022-12-03T12:55:08.152Z,5.60
2022-12-03T12:57:34.370Z,5.55
2022-12-03T13:00:00.579Z,5.54
2022-12-03T13:02:27.760Z,5.64
2022-12-03T13:04:53.996Z,5.63
2022-12-03T13:07:20.192Z,5.57
2022-12-03T13:09:46.337Z,5.61
2022-12-03T13:12:12.530Z,5.64
2022-12-03T13:14:38.651Z,5.66
2022-12-03T13:17:04.801Z,5.66
2022-12-03T13:19:30.956Z,5.62
2022-12-03T13:21:57.192Z,5.66
2022-12-03T13:24:23.353Z,5.71
2022-12-03T13:26:49.554Z,5.65
2022-12-03T13:29:15.794Z,5.63
2022-12-03T13:31:44.187Z,5.56
2022-12-03T13:34:10.741Z,5.54
2022-12-03T13:36:36.895Z,5.38
2022-12-03T13:39:03.023Z,5.48
2022-12-03T13:41:29.236Z,5.41
2022-12-03T13:43:55.407Z,5.45
2022-12-03T13:46:21.685Z,5.47
2022-12-03T13:48:48.046Z,5.42
2022-12-03T13:51:14.186Z,5.40
2022-12-03T13:53:40.506Z,5.36
2022-12-03T13:56:06.698Z,5.27
2022-12-03T13:58:33.090Z,5.30
2022-12-03T14:00:59.294Z,5.22
2022-12-03T14:03:25.502Z,5.23
2022-12-03T14:05:51.613Z,5.18
2022-12-03T14:08:17.945Z,5.11
2022-12-03T14:10:44.342Z,5.15
2022-12-03T14:13:10.518Z,5.09
2022-12-03T14:15:36.715Z,5.10
2022-12-03T14:18:02.889Z,5.09
2022-12-03T14:20:29.039Z,5.02
2022-12-03T14:22:59.299Z,5.10
2022-12-03T14:25:25.823Z,5.00
2022-12-03T14:27:51.982Z,4.98
2022-12-03T14:30:18.098Z,4.95
2022-12-03T14:32:44.223Z,4.91
2022-12-03T14:35:10.472Z,4.90
2022-12-03T14:37:36.689Z,4.92
2022-12-03T14:40:02.898Z,4.94
2022-12-03T14:42:29.068Z,4.87
2022-12-03T14:44:55.235Z,4.87
2022-12-03T14:47:21.377Z,4.88
2022-12-03T14:49:47.537Z,4.81
2022-12-03T14:52:13.983Z,4.96
2022-12-03T14:54:40.193Z,4.95
2022-12-03T14:57:06.328Z,4.84
2022-12-03T14:59:32.504Z,4.90
2022-12-03T15:01:58.713Z,4.80
2022-12-03T15:04:24.948Z,4.83
2022-12-03T15:06:51.090Z,4.79
2022-12-03T15:09:17.252Z,4.77
2022-12-03T15:11:46.417Z,4.79
2022-12-03T15:14:12.940Z,4.86
2022-12-03T15:16:39.136Z,4.82
2022-12-03T15:19:05.334Z,4.79
2022-12-03T15:21:31.539Z,4.72
2022-12-03T15:23:57.702Z,4.68
2022-12-03T15:26:23.825Z,4.71
2022-12-03T15:28:50.031Z,4.68
2022-12-03T15:31:16.324Z,4.64
2022-12-03T15:33:42.538Z,4.66
2022-12-03T15:36:08.733Z,4.63
2022-12-03T15:38:34.879Z,4.62
2022-12-03T15:41:01.025Z,4.58
2022-12-03T15:43:27.171Z,4.56
2022-12-03T15:45:53.373Z,4.56
2022-12-03T15:48:19.533Z,4.61
2022-12-03T15:50:45.657Z,4.58
2022-12-03T15:53:11.839Z,4.53
2022-12-03T15:55:37.998Z,4.52
2022-12-03T15:58:04.111Z,4.57
2022-12-03T16:00:30.244Z,4.57
2022-12-03T16:02:56.430Z,4.58
2022-12-03T16:05:22.668Z,4.54
2022-12-03T16:07:48.864Z,4.49
2022-12-03T16:10:15.074Z,4.47
2022-12-03T16:12:41.243Z,4.48
2022-12-03T16:15:07.356Z,4.46
2022-12-03T16:17:33.471Z,4.54
2022-12-03T16:19:59.684Z,4.52
2022-12-03T16:22:25.846Z,4.52
2022-12-03T16:24:52.034Z,4.51
2022-12-03T16:27:21.567Z,4.51
2022-12-03T16:29:50.263Z,4.46
2022-12-03T16:32:16.451Z,4.47
2022-12-03T16:34:42.622Z,4.48
2022-12-03T16:37:08.784Z,4.46
2022-12-03T16:39:34.962Z,4.49
2022-12-03T16:42:01.130Z,4.43
2022-12-03T16:44:27.298Z,4.46
2022-12-03T16:46:53.536Z,4.50
2022-12-03T16:49:19.784Z,4.49
2022-12-03T16:51:45.949Z,4.39
2022-12-03T16:54:12.094Z,4.42
2022-12-03T16:56:38.227Z,4.42
2022-12-03T16:59:04.387Z,4.47
2022-12-03T17:01:30.706Z,4.38
2022-12-03T17:03:56.948Z,4.38
2022-12-03T17:06:23.086Z,4.35
2022-12-03T17:08:50.062Z,4.32
2022-12-03T17:11:16.373Z,4.33
2022-12-03T17:13:42.556Z,4.33
2022-12-03T17:16:08.788Z,4.29
2022-12-03T17:18:34.979Z,4.30
2022-12-03T17:21:01.158Z,4.27
2022-12-03T17:23:27.301Z,4.24
2022-12-03T17:25:53.477Z,4.28
2022-12-03T17:28:19.620Z,4.20
2022-12-03T17:30:45.859Z,4.20
2022-12-03T17:33:12.072Z,4.17
2022-12-03T17:35:38.276Z,4.23
2022-12-03T17:38:04.469Z,4.25
2022-12-03T17:40:30.682Z,4.22
2022-12-03T17:42:56.812Z,4.18
2022-12-03T17:45:22.967Z,4.19
2022-12-03T17:47:49.080Z,4.16
2022-12-03T17:50:15.241Z,4.17
2022-12-03T17:52:41.397Z,4.18
2022-12-03T17:55:15.674Z,4.14
2022-12-03T17:57:44.092Z,4.11
2022-12-03T18:00:10.233Z,4.16
2022-12-03T18:02:36.411Z,4.14
2022-12-03T18:05:02.535Z,4.10
2022-12-03T18:07:28.722Z,4.09
2022-12-03T18:09:55.259Z,4.08
2022-12-03T18:12:21.668Z,4.12
2022-12-03T18:14:47.788Z,4.14
2022-12-03T18:17:13.927Z,4.07
2022-12-03T18:19:40.116Z,4.06
2022-12-03T18:22:06.243Z,3.98
2022-12-03T18:24:32.349Z,4.01
2022-12-03T18:26:58.491Z,3.95
2022-12-03T18:29:24.665Z,3.98
2022-12-03T18:31:50.895Z,3.97
2022-12-03T18:34:17.099Z,3.92
2022-12-03T18:36:43.233Z,3.98
2022-12-03T18:39:09.386Z,3.93
2022-12-03T18:41:35.559Z,3.89
2022-12-03T18:44:01.674Z,3.76
2022-12-03T18:49:14.079Z,3.87
2022-12-03T18:51:40.204Z,3.85
2022-12-03T18:54:06.356Z,3.88
2022-12-03T18:56:33.643Z,3.85
2022-12-03T18:58:59.905Z,3.90
2022-12-03T19:01:26.117Z,3.87
2022-12-03T19:03:52.380Z,3.88
2022-12-03T19:06:19.032Z,3.89
2022-12-03T19:08:45.356Z,3.84
2022-12-03T19:11:11.496Z,3.87
2022-12-03T19:13:37.620Z,3.89
2022-12-03T19:16:03.773Z,3.90
2022-12-03T19:18:29.929Z,3.85
2022-12-03T19:20:56.117Z,3.82
2022-12-03T19:23:22.279Z,3.74
2022-12-03T19:25:48.582Z,3.79
2022-12-03T19:28:14.707Z,3.80
2022-12-03T19:30:40.924Z,3.77
2022-12-03T19:33:12.728Z,3.80
2022-12-03T19:35:42.758Z,3.74
2022-12-03T19:38:09.046Z,3.76
2022-12-03T19:40:35.208Z,3.75
2022-12-03T19:43:01.726Z,3.79
2022-12-03T19:45:28.011Z,3.72
2022-12-03T19:47:54.170Z,3.72
2022-12-03T19:50:23.360Z,3.69
2022-12-03T19:52:49.945Z,3.71
2022-12-03T19:55:16.064Z,3.66
2022-12-03T19:57:42.262Z,3.62
2022-12-03T20:00:08.480Z,3.60
2022-12-03T20:02:34.690Z,3.64
2022-12-03T20:05:00.956Z,3.63
2022-12-03T20:07:27.172Z,3.58
2022-12-03T20:09:53.673Z,3.63
2022-12-03T20:12:20.094Z,3.64
2022-12-03T20:14:46.271Z,3.66
2022-12-03T20:17:12.478Z,3.64
2022-12-03T20:19:38.652Z,3.67
2022-12-03T20:22:04.858Z,3.61
2022-12-03T20:24:31.155Z,3.56
2022-12-03T20:26:57.316Z,3.62
2022-12-03T20:29:23.466Z,3.60
2022-12-03T20:31:49.969Z,3.59
2022-12-03T20:34:16.173Z,3.57
2022-12-03T20:36:42.513Z,3.56
2022-12-03T20:39:08.663Z,3.57
2022-12-03T20:41:34.915Z,3.63
2022-12-03T20:44:01.098Z,3.60
2022-12-03T20:46:27.417Z,3.58
2022-12-03T20:48:53.662Z,3.53
2022-12-03T20:51:19.965Z,3.53
2022-12-03T20:53:46.132Z,3.54
2022-12-03T20:56:12.305Z,3.56
2022-12-03T20:58:38.580Z,3.51
2022-12-03T21:01:05.086Z,3.50
2022-12-03T21:03:31.610Z,3.52
2022-12-03T21:05:58.097Z,3.53
2022-12-03T21:08:40.067Z,3.47
2022-12-03T21:11:06.627Z,3.48
2022-12-03T21:13:32.784Z,3.53
2022-12-03T21:15:59.154Z,3.51
2022-12-03T21:18:25.307Z,3.49
2022-12-03T21:20:51.581Z,3.49
2022-12-03T21:23:17.889Z,3.50
2022-12-03T21:25:44.045Z,3.48
2022-12-03T21:28:10.171Z,3.48
2022-12-03T21:30:36.322Z,3.46
2022-12-03T21:33:02.589Z,3.47
2022-12-03T21:35:28.759Z,3.53
2022-12-03T21:37:55.034Z,3.56
2022-12-03T21:40:21.206Z,3.50
2022-12-03T21:42:47.354Z,3.53
2022-12-03T21:45:13.548Z,3.50
2022-12-03T21:47:39.895Z,3.45
2022-12-03T21:50:06.081Z,3.41
2022-12-03T21:52:32.218Z,3.41
2022-12-03T21:54:58.375Z,3.42
2022-12-03T21:57:24.566Z,3.42
2022-12-03T22:00:09.112Z,3.41
2022-12-03T22:11:04.796Z,3.30
2022-12-03T22:13:44.813Z,3.25
2022-12-03T22:18:56.340Z,3.24
2022-12-03T22:32:31.246Z,3.27
2022-12-03T22:51:45.305Z,3.34
2022-12-03T22:54:11.627Z,3.26
2022-12-03T22:56:37.779Z,3.30
2022-12-03T22:59:03.898Z,3.18
2022-12-03T23:01:30.056Z,3.15
2022-12-03T23:03:56.534Z,3.10
2022-12-03T23:06:22.745Z,3.00
2022-12-03T23:08:48.899Z,2.97
2022-12-03T23:11:15.077Z,2.96
2022-12-03T23:13:41.443Z,2.90
2022-12-03T23:16:07.619Z,2.92
2022-12-03T23:18:33.760Z,2.87
2022-12-03T23:20:59.868Z,2.83
2022-12-03T23:23:26.030Z,2.83
2022-12-03T23:25:52.157Z,2.84
2022-12-03T23:28:18.347Z,2.84
2022-12-03T23:30:44.569Z,2.81
2022-12-03T23:33:10.801Z,2.81
2022-12-03T23:35:36.983Z,2.81
2022-12-03T23:38:03.185Z,2.78
2022-12-03T23:40:29.297Z,2.77
2022-12-03T23:42:55.441Z,2.74
2022-12-03T23:45:21.593Z,2.73
2022-12-03T23:47:47.770Z,2.72
2022-12-03T23:50:14.003Z,2.70
2022-12-03T23:52:40.278Z,2.72
2022-12-03T23:55:06.433Z,2.72
2022-12-03T23:57:32.644Z,2.72
2022-12-03T23:59:58.796Z,2.72
